Time;durP1;ratioP1;P1;durP2;ratioP2;P2;SDS_P1;SDS_P2;PMS_P1;PMS_P2;Temp;Humidity;BMP_temperature;BMP_pressure;BME280_temperature;BME280_humidity;BME280_pressure;Samples;Min_cycle;Max_cycle;Signal;HPM_P1;HPM_P2
2023/12/07 00:00:59;;;;;;;0.60;0.60;;;2.90;99.30;;;;;;4996950;28;20421;-61
2023/12/07 00:03:24;;;;;;;0.50;0.50;;;2.70;99.30;;;;;;4998508;28;20177;-62
2023/12/07 00:05:50;;;;;;;0.43;0.43;;;2.60;99.60;;;;;;4998818;28;20681;-62
2023/12/07 00:08:16;;;;;;;0.97;0.80;;;2.50;99.70;;;;;;4999030;28;20203;-61
2023/12/07 00:10:41;;;;;;;0.47;0.47;;;2.50;99.70;;;;;;4997605;28;20594;-61
2023/12/07 00:13:07;;;;;;;1.87;1.77;;;2.40;99.70;;;;;;4999201;28;20206;-62
2023/12/07 00:15:32;;;;;;;0.50;0.50;;;2.40;99.70;;;;;;5000017;28;20206;-62
2023/12/07 00:18:00;;;;;;;0.57;0.47;;;2.30;99.60;;;;;;4999827;28;20176;-62
2023/12/07 00:20:25;;;;;;;0.55;0.55;;;2.30;99.60;;;;;;4998364;28;20171;-61
2023/12/07 00:22:51;;;;;;;1.80;1.53;;;2.30;99.60;;;;;;4998233;28;20191;-61
2023/12/07 00:25:17;;;;;;;1.90;0.73;;;2.20;99.60;;;;;;4997651;28;20418;-62
2023/12/07 00:27:42;;;;;;;0.60;0.60;;;2.20;99.70;;;;;;4997770;28;20262;-62
2023/12/07 00:30:08;;;;;;;2.20;1.50;;;2.10;99.80;;;;;;4997021;28;20176;-62
2023/12/07 00:32:34;;;;;;;1.33;1.23;;;2.00;99.80;;;;;;4997578;28;20210;-61
2023/12/07 00:35:00;;;;;;;0.70;0.70;;;1.90;99.90;;;;;;4997440;28;20179;-62
2023/12/07 00:37:27;;;;;;;1.63;1.53;;;1.90;99.90;;;;;;4998187;28;20413;-62
2023/12/07 00:39:52;;;;;;;1.38;0.68;;;2.00;99.90;;;;;;4997032;28;20172;-62
2023/12/07 00:42:18;;;;;;;0.60;0.60;;;2.10;99.80;;;;;;4997506;28;20180;-62
2023/12/07 00:44:43;;;;;;;0.63;0.63;;;2.10;99.60;;;;;;4997474;28;20175;-61
2023/12/07 00:47:09;;;;;;;0.70;0.40;;;2.00;99.40;;;;;;4998167;28;20704;-62
2023/12/07 00:49:39;;;;;;;1.07;1.07;;;1.90;99.30;;;;;;4997579;28;20188;-62
2023/12/07 00:52:05;;;;;;;0.82;0.82;;;1.80;99.20;;;;;;4996706;28;20606;-61
2023/12/07 00:54:31;;;;;;;0.85;0.85;;;1.70;99.40;;;;;;4996314;28;20209;-62
2023/12/07 00:56:57;;;;;;;1.30;1.20;;;1.60;99.40;;;;;;4997258;28;20570;-62
2023/12/07 00:59:23;;;;;;;2.92;0.60;;;1.50;99.40;;;;;;4997535;28;20212;-62
2023/12/07 01:01:49;;;;;;;0.40;0.40;;;1.50;99.50;;;;;;4997811;28;20175;-62
2023/12/07 01:04:14;;;;;;;0.80;0.80;;;1.30;99.30;;;;;;4997370;28;20453;-61
2023/12/07 01:06:40;;;;;;;0.50;0.50;;;1.30;99.60;;;;;;4997533;28;20599;-62
2023/12/07 01:09:06;;;;;;;0.73;0.73;;;1.30;99.70;;;;;;4997286;28;20255;-62
2023/12/07 01:11:31;;;;;;;4.70;2.53;;;1.30;99.60;;;;;;4997247;28;20302;-62
2023/12/07 01:13:57;;;;;;;0.30;0.30;;;1.20;99.30;;;;;;4997123;28;20209;-62
2023/12/07 01:16:24;;;;;;;1.90;1.80;;;1.00;99.00;;;;;;4997749;28;20241;-61
2023/12/07 01:18:50;;;;;;;0.68;0.50;;;0.80;99.10;;;;;;4999061;28;20172;-61
2023/12/07 01:21:15;;;;;;;0.40;0.40;;;0.60;99.40;;;;;;5001045;28;20179;-62
2023/12/07 01:23:42;;;;;;;0.40;0.40;;;0.70;99.90;;;;;;5000961;28;20182;-61
2023/12/07 01:26:08;;;;;;;0.30;0.30;;;0.80;99.90;;;;;;5001519;28;20191;-61
2023/12/07 01:28:33;;;;;;;2.10;0.80;;;0.90;99.70;;;;;;5001459;28;20181;-62
2023/12/07 01:30:59;;;;;;;0.63;0.63;;;0.90;99.50;;;;;;5000571;28;20670;-61
2023/12/07 01:33:25;;;;;;;0.77;0.77;;;0.90;99.40;;;;;;5000885;28;20234;-61
2023/12/07 01:35:50;;;;;;;0.60;0.60;;;0.90;99.30;;;;;;5000304;28;20190;-61
2023/12/07 01:38:16;;;;;;;0.40;0.40;;;0.90;99.30;;;;;;5001518;28;20170;-61
2023/12/07 01:40:41;;;;;;;1.50;1.03;;;0.90;99.30;;;;;;5000330;28;20178;-62
2023/12/07 01:43:07;;;;;;;0.30;0.30;;;0.80;99.20;;;;;;5000780;28;20722;-61
2023/12/07 01:45:33;;;;;;;0.73;0.50;;;0.80;99.20;;;;;;5000573;28;20220;-61
2023/12/07 01:47:59;;;;;;;0.77;0.77;;;0.80;99.10;;;;;;5000808;28;20181;-61
2023/12/07 01:50:28;;;;;;;1.95;1.65;;;0.50;98.70;;;;;;5000712;28;20175;-61
2023/12/07 01:52:58;;;;;;;1.23;1.13;;;0.20;98.70;;;;;;4998879;28;20227;-60
2023/12/07 01:55:24;;;;;;;0.40;0.40;;;0.20;99.30;;;;;;5000777;28;20189;-61
2023/12/07 01:57:50;;;;;;;1.05;1.05;;;0.30;99.40;;;;;;5000795;28;20238;-62
2023/12/07 02:00:16;;;;;;;0.43;0.43;;;0.40;99.40;;;;;;5000210;28;20173;-62
2023/12/07 02:02:45;;;;;;;0.30;0.30;;;0.40;99.30;;;;;;5000034;28;20419;-61
2023/12/07 02:05:12;;;;;;;0.52;0.50;;;0.40;99.10;;;;;;4999468;28;20199;-61
2023/12/07 02:07:42;;;;;;;0.30;0.30;;;0.30;99.00;;;;;;4999685;28;20177;-61
2023/12/07 02:10:08;;;;;;;0.88;0.88;;;0.30;99.10;;;;;;4998857;28;20490;-62
2023/12/07 02:12:35;;;;;;;0.40;0.40;;;0.30;99.10;;;;;;4999761;28;20681;-61
2023/12/07 02:15:02;;;;;;;0.75;0.65;;;0.30;98.90;;;;;;5001455;28;20390;-61
2023/12/07 02:17:38;;;;;;;1.58;1.48;;;0.20;98.70;;;;;;5001698;28;20192;-61
2023/12/07 02:20:11;;;;;;;0.52;0.52;;;-0.10;98.40;;;;;;5001057;28;20179;-61
2023/12/07 02:22:49;;;;;;;0.40;0.40;;;-0.20;98.70;;;;;;5001171;28;20455;-61
2023/12/07 02:25:18;;;;;;;1.02;0.98;;;-0.20;99.00;;;;;;5001363;28;20179;-61
2023/12/07 02:27:48;;;;;;;0.90;0.82;;;-0.30;98.80;;;;;;5001094;28;20190;-62
2023/12/07 02:30:14;;;;;;;0.50;0.50;;;-0.50;98.80;;;;;;4999862;28;20192;-62
2023/12/07 02:32:43;;;;;;;1.17;1.17;;;-0.50;98.90;;;;;;5000822;28;20240;-62
2023/12/07 02:35:12;;;;;;;0.30;0.30;;;-0.50;99.20;;;;;;5001350;28;20180;-62
2023/12/07 02:37:43;;;;;;;0.40;0.40;;;-0.50;99.40;;;;;;5000733;28;20575;-61
2023/12/07 02:40:10;;;;;;;0.63;0.50;;;-0.40;99.60;;;;;;5001252;28;20781;-61
2023/12/07 02:42:38;;;;;;;0.40;0.40;;;-0.30;99.20;;;;;;5000793;28;20223;-61
2023/12/07 02:45:05;;;;;;;0.40;0.40;;;-0.20;99.00;;;;;;5000305;28;20177;-61
2023/12/07 02:47:30;;;;;;;0.57;0.57;;;-0.30;98.70;;;;;;5000532;28;20177;-61
2023/12/07 02:49:56;;;;;;;4.77;1.37;;;-0.40;98.50;;;;;;5000157;28;20536;-62
2023/12/07 02:52:22;;;;;;;0.30;0.30;;;-0.60;98.50;;;;;;5000467;28;20203;-61
2023/12/07 02:54:48;;;;;;;0.33;0.33;;;-0.50;98.80;;;;;;5000538;28;20168;-61
2023/12/07 02:57:14;;;;;;;0.65;0.65;;;-0.60;98.70;;;;;;5000016;28;20191;-62
2023/12/07 02:59:40;;;;;;;1.35;1.25;;;-0.70;98.70;;;;;;4999963;28;20235;-61
2023/12/07 03:02:06;;;;;;;3.42;3.17;;;-0.80;98.80;;;;;;4999839;28;20168;-62
2023/12/07 03:04:32;;;;;;;0.40;0.40;;;-0.70;99.10;;;;;;5000300;28;20231;-62
2023/12/07 03:06:58;;;;;;;0.40;0.40;;;-0.60;99.20;;;;;;4999526;28;20431;-61
2023/12/07 03:09:24;;;;;;;0.57;0.57;;;-0.50;98.90;;;;;;5000044;28;20450;-61
2023/12/07 03:11:50;;;;;;;1.07;0.70;;;-0.50;98.60;;;;;;4998712;28;20410;-62
2023/12/07 03:14:15;;;;;;;0.30;0.30;;;-0.60;98.40;;;;;;4999129;28;20200;-61
2023/12/07 03:16:41;;;;;;;0.50;0.50;;;-0.60;98.40;;;;;;4982758;23;20252;-62
2023/12/07 03:19:07;;;;;;;0.40;0.40;;;-0.70;98.50;;;;;;4954726;28;20338;-62
2023/12/07 03:21:32;;;;;;;0.60;0.60;;;-0.70;98.40;;;;;;4954245;28;20194;-62
2023/12/07 03:23:58;;;;;;;0.50;0.50;;;-0.70;98.20;;;;;;4954586;28;20184;-62
2023/12/07 03:26:23;;;;;;;0.50;0.50;;;-0.80;98.10;;;;;;4954421;28;20201;-62
2023/12/07 03:28:49;;;;;;;1.23;1.23;;;-0.80;98.10;;;;;;4954662;29;20185;-62
2023/12/07 03:31:15;;;;;;;0.40;0.40;;;-0.80;98.10;;;;;;4954181;29;20201;-62
2023/12/07 03:33:43;;;;;;;0.60;0.60;;;-0.90;98.00;;;;;;4954349;29;20213;-62
2023/12/07 03:36:11;;;;;;;0.40;0.40;;;-1.00;98.10;;;;;;4954246;29;20715;-62
2023/12/07 03:38:37;;;;;;;0.40;0.40;;;-1.00;98.10;;;;;;4953022;28;20193;-62
2023/12/07 03:41:03;;;;;;;0.50;0.50;;;-1.00;98.00;;;;;;4953639;28;20178;-62
2023/12/07 03:43:29;;;;;;;0.50;0.50;;;-1.10;98.00;;;;;;4954315;29;20248;-62
2023/12/07 03:45:55;;;;;;;0.80;0.80;;;-1.20;97.90;;;;;;4954191;29;20280;-62
2023/12/07 03:48:20;;;;;;;0.50;0.50;;;-1.30;97.90;;;;;;4952615;29;20550;-62
2023/12/07 03:50:46;;;;;;;0.40;0.40;;;-1.40;98.30;;;;;;4954011;28;20189;-62
2023/12/07 03:53:12;;;;;;;0.40;0.40;;;-1.30;98.60;;;;;;4954066;29;20205;-62
2023/12/07 03:55:38;;;;;;;0.60;0.60;;;-1.20;98.80;;;;;;4954074;28;20359;-62
2023/12/07 03:58:04;;;;;;;1.00;0.65;;;-1.20;98.70;;;;;;4953993;29;20181;-62
2023/12/07 04:00:32;;;;;;;0.45;0.45;;;-1.20;98.50;;;;;;4953606;29;20184;-62
2023/12/07 04:02:57;;;;;;;0.30;0.30;;;-1.20;98.20;;;;;;4953873;29;20220;-62
2023/12/07 04:05:23;;;;;;;1.90;1.80;;;-1.20;98.10;;;;;;4953881;29;20205;-62
2023/12/07 04:07:49;;;;;;;1.13;0.80;;;-1.20;98.00;;;;;;4953879;29;20201;-62
2023/12/07 04:10:15;;;;;;;0.50;0.50;;;-1.20;97.90;;;;;;4953533;29;20460;-62
2023/12/07 04:12:40;;;;;;;0.30;0.30;;;-1.20;97.80;;;;;;4953291;29;20236;-62
2023/12/07 04:15:07;;;;;;;1.00;1.00;;;-1.20;97.70;;;;;;4953550;28;20651;-62
2023/12/07 04:17:32;;;;;;;0.70;0.70;;;-1.20;97.60;;;;;;4953552;28;20770;-62
2023/12/07 04:19:58;;;;;;;0.40;0.40;;;-1.30;97.50;;;;;;4953488;28;20268;-61
2023/12/07 04:22:24;;;;;;;0.50;0.50;;;-1.30;97.60;;;;;;4953795;28;20178;-62
2023/12/07 04:24:49;;;;;;;1.00;0.50;;;-1.40;97.70;;;;;;4953652;29;20432;-62
2023/12/07 04:27:15;;;;;;;1.07;1.07;;;-1.40;97.70;;;;;;4953525;29;20208;-62
2023/12/07 04:29:41;;;;;;;0.50;0.50;;;-1.30;97.60;;;;;;4953400;29;20192;-61
2023/12/07 04:32:07;;;;;;;0.37;0.37;;;-1.30;97.50;;;;;;4952257;29;20272;-61
2023/12/07 04:34:33;;;;;;;0.60;0.60;;;-1.40;97.50;;;;;;4953564;28;20554;-62
2023/12/07 04:36:59;;;;;;;0.73;0.73;;;-1.40;97.70;;;;;;4951285;28;20286;-62
2023/12/07 04:39:25;;;;;;;0.57;0.57;;;-1.40;98.00;;;;;;4953413;29;20425;-61
2023/12/07 04:41:51;;;;;;;0.40;0.40;;;-1.40;97.50;;;;;;4952790;28;20417;-62
2023/12/07 04:44:17;;;;;;;0.60;0.60;;;-1.50;97.40;;;;;;4953390;28;20178;-61
2023/12/07 04:46:43;;;;;;;0.40;0.40;;;-1.60;97.60;;;;;;4953347;28;20429;-61
2023/12/07 04:49:08;;;;;;;0.57;0.57;;;-1.50;97.70;;;;;;4953465;28;20181;-62
2023/12/07 04:51:35;;;;;;;0.70;0.70;;;-1.60;97.70;;;;;;4943979;28;20643;-62
2023/12/07 04:54:05;;;;;;;0.30;0.30;;;-1.60;97.90;;;;;;4948141;28;20212;-61
2023/12/07 04:56:37;;;;;;;2.85;1.75;;;-1.60;98.40;;;;;;4957307;28;20746;-62
2023/12/07 04:59:10;;;;;;;0.52;0.52;;;-1.60;98.20;;;;;;4949277;28;20185;-61
2023/12/07 05:01:36;;;;;;;0.40;0.40;;;-1.60;98.00;;;;;;4936494;29;20182;-61
2023/12/07 05:04:03;;;;;;;0.45;0.45;;;-1.80;97.60;;;;;;4937543;29;20691;-62
2023/12/07 05:06:33;;;;;;;0.38;0.38;;;-1.90;97.80;;;;;;4937770;29;20217;-62
2023/12/07 05:09:08;;;;;;;0.40;0.40;;;-1.90;98.20;;;;;;4954557;29;20272;-62
2023/12/07 05:11:41;;;;;;;0.40;0.40;;;-1.90;98.30;;;;;;4954774;28;20196;-62
2023/12/07 05:14:08;;;;;;;0.60;0.60;;;-1.90;98.30;;;;;;4953484;29;20205;-61
2023/12/07 05:16:36;;;;;;;1.75;1.65;;;-1.80;98.30;;;;;;4955074;28;20609;-61
2023/12/07 05:19:05;;;;;;;1.73;0.80;;;-1.70;98.40;;;;;;4955594;28;20666;-62
2023/12/07 05:21:31;;;;;;;18.58;1.50;;;-1.60;98.00;;;;;;4956554;29;20197;-61
2023/12/07 05:23:57;;;;;;;0.50;0.50;;;-1.60;97.50;;;;;;4954107;29;20205;-61
2023/12/07 05:26:23;;;;;;;0.50;0.50;;;-1.70;97.50;;;;;;4937407;29;20209;-61
2023/12/07 05:28:49;;;;;;;33.13;2.00;;;-1.70;97.90;;;;;;4937581;29;20170;-61
2023/12/07 05:31:18;;;;;;;1.13;1.02;;;-1.80;98.00;;;;;;4937152;29;20413;-61
2023/12/07 05:33:44;;;;;;;0.63;0.63;;;-1.80;98.10;;;;;;4944586;29;20216;-61
2023/12/07 05:36:10;;;;;;;2.07;2.00;;;-1.80;98.20;;;;;;4948907;28;20206;-60
2023/12/07 05:38:35;;;;;;;0.40;0.40;;;-1.80;98.50;;;;;;4954283;29;20413;-62
2023/12/07 05:41:03;;;;;;;2.20;1.30;;;-1.80;98.40;;;;;;4956065;29;20175;-61
2023/12/07 05:43:28;;;;;;;0.65;0.65;;;-1.80;98.20;;;;;;4937764;29;20182;-61
2023/12/07 05:45:54;;;;;;;0.40;0.40;;;-1.80;97.90;;;;;;4939779;29;20559;-61
2023/12/07 05:48:20;;;;;;;0.50;0.50;;;-2.00;97.50;;;;;;4936780;29;20252;-61
2023/12/07 05:50:46;;;;;;;0.40;0.40;;;-2.10;97.50;;;;;;4948128;29;20269;-62
2023/12/07 05:53:12;;;;;;;0.43;0.43;;;-2.10;97.90;;;;;;4946138;28;20202;-61
2023/12/07 05:55:39;;;;;;;0.60;0.60;;;-1.90;98.20;;;;;;4952283;29;20915;-62
2023/12/07 05:58:05;;;;;;;1.40;0.98;;;-1.80;98.10;;;;;;4956228;29;20181;-63
2023/12/07 06:00:32;;;;;;;0.73;0.73;;;-1.80;97.80;;;;;;4950507;29;20177;-59
2023/12/07 06:02:59;;;;;;;0.55;0.55;;;-1.80;97.90;;;;;;4942419;29;20244;-60
2023/12/07 06:05:25;;;;;;;0.90;0.90;;;-1.70;97.70;;;;;;4951048;28;20188;-60
2023/12/07 06:07:50;;;;;;;0.40;0.40;;;-1.70;97.30;;;;;;4954520;29;20679;-60
2023/12/07 06:10:16;;;;;;;2.93;0.90;;;-1.90;97.10;;;;;;4931711;29;20213;-62
2023/12/07 06:12:42;;;;;;;0.85;0.85;;;-1.90;97.50;;;;;;4945792;29;20691;-63
2023/12/07 06:15:09;;;;;;;0.80;0.80;;;-1.90;98.10;;;;;;4945082;29;20188;-61
2023/12/07 06:17:35;;;;;;;0.50;0.50;;;-1.80;98.30;;;;;;4953211;29;20209;-61
2023/12/07 06:20:01;;;;;;;0.57;0.57;;;-1.70;98.20;;;;;;4953825;29;20185;-60
2023/12/07 06:22:26;;;;;;;0.40;0.40;;;-1.80;98.00;;;;;;4955966;28;20281;-61
2023/12/07 06:24:52;;;;;;;0.40;0.40;;;-1.90;97.90;;;;;;4956067;28;20185;-60
2023/12/07 06:27:18;;;;;;;0.67;0.67;;;-1.90;97.80;;;;;;4955754;28;20198;-61
2023/12/07 06:29:43;;;;;;;0.73;0.73;;;-1.80;97.60;;;;;;4955572;28;20178;-61
2023/12/07 06:32:09;;;;;;;0.40;0.40;;;-1.90;97.50;;;;;;4955177;28;20413;-61
2023/12/07 06:34:40;;;;;;;1.37;1.37;;;-2.10;97.50;;;;;;4955509;28;20197;-60
2023/12/07 06:37:06;;;;;;;1.65;1.25;;;-2.00;97.90;;;;;;4955656;28;20198;-61
2023/12/07 06:39:31;;;;;;;0.67;0.60;;;-2.00;98.00;;;;;;4955430;28;20180;-61
2023/12/07 06:41:57;;;;;;;1.40;1.30;;;-2.10;97.90;;;;;;4954974;28;20173;-61
2023/12/07 06:44:23;;;;;;;0.70;0.70;;;-2.20;97.70;;;;;;4955332;28;20176;-61
2023/12/07 06:46:49;;;;;;;0.80;0.80;;;-2.20;98.20;;;;;;4955243;28;20270;-61
2023/12/07 06:49:15;;;;;;;1.13;1.13;;;-2.00;98.30;;;;;;4955118;28;20174;-61
2023/12/07 06:51:40;;;;;;;0.40;0.40;;;-2.10;98.00;;;;;;4954904;28;20739;-61
2023/12/07 06:54:06;;;;;;;0.50;0.50;;;-2.10;97.80;;;;;;4955068;28;20201;-61
2023/12/07 06:56:31;;;;;;;0.40;0.40;;;-2.00;97.80;;;;;;4954415;28;20197;-61
2023/12/07 06:58:57;;;;;;;0.40;0.40;;;-2.10;98.00;;;;;;4955139;28;20646;-61
2023/12/07 07:01:22;;;;;;;0.40;0.40;;;-2.00;97.60;;;;;;4954748;28;20192;-61
2023/12/07 07:03:48;;;;;;;0.90;0.90;;;-2.00;97.70;;;;;;4954884;28;20205;-61
2023/12/07 07:06:14;;;;;;;1.03;0.70;;;-2.00;97.80;;;;;;4955035;28;20280;-61
2023/12/07 07:08:39;;;;;;;0.40;0.40;;;-1.90;97.90;;;;;;4955071;28;20651;-61
2023/12/07 07:11:12;;;;;;;0.50;0.50;;;-2.00;97.60;;;;;;4954495;28;20181;-61
2023/12/07 07:13:38;;;;;;;0.50;0.50;;;-2.10;97.30;;;;;;4954599;28;20193;-61
2023/12/07 07:16:04;;;;;;;1.50;1.40;;;-2.10;97.30;;;;;;4953865;28;20557;-61
2023/12/07 07:18:30;;;;;;;0.98;0.98;;;-2.20;97.20;;;;;;4954541;28;20260;-61
2023/12/07 07:20:55;;;;;;;0.40;0.40;;;-2.10;97.60;;;;;;4954604;28;20285;-61
2023/12/07 07:23:21;;;;;;;0.60;0.60;;;-1.90;97.70;;;;;;4954599;28;20170;-61
2023/12/07 07:25:46;;;;;;;0.60;0.60;;;-1.70;97.60;;;;;;4954541;28;20181;-61
2023/12/07 07:28:12;;;;;;;2.57;1.90;;;-1.80;97.30;;;;;;4954391;28;20181;-61
2023/12/07 07:30:38;;;;;;;1.23;1.13;;;-1.80;97.10;;;;;;4954140;28;20201;-61
2023/12/07 07:33:04;;;;;;;1.58;1.45;;;-1.90;96.80;;;;;;4954166;28;20263;-61
2023/12/07 07:35:29;;;;;;;0.67;0.67;;;-1.90;96.60;;;;;;4954364;28;20178;-60
2023/12/07 07:37:55;;;;;;;0.40;0.40;;;-1.90;96.80;;;;;;4954472;28;20623;-61
2023/12/07 07:40:21;;;;;;;0.40;0.40;;;-1.80;97.10;;;;;;4954086;28;20476;-61
2023/12/07 07:42:46;;;;;;;0.40;0.40;;;-1.80;97.50;;;;;;4954249;28;20259;-61
2023/12/07 07:45:12;;;;;;;0.40;0.40;;;-1.60;97.60;;;;;;4954239;28;20177;-61
2023/12/07 07:47:38;;;;;;;2.70;1.80;;;-1.50;97.40;;;;;;4954088;28;20220;-61
2023/12/07 07:50:05;;;;;;;0.40;0.40;;;-1.40;97.30;;;;;;4953794;28;20170;-61
2023/12/07 07:52:35;;;;;;;1.15;1.15;;;-1.50;96.90;;;;;;4954117;28;20194;-61
2023/12/07 07:55:02;;;;;;;0.45;0.45;;;-1.50;96.70;;;;;;4954029;28;20208;-61
2023/12/07 07:57:29;;;;;;;0.45;0.45;;;-1.50;96.60;;;;;;4952948;28;20205;-61
2023/12/07 07:59:56;;;;;;;0.40;0.40;;;-1.40;96.60;;;;;;4953640;28;20690;-61
2023/12/07 08:02:21;;;;;;;1.63;0.80;;;-1.30;96.30;;;;;;4953972;28;20170;-60
2023/12/07 08:04:47;;;;;;;0.50;0.50;;;-1.30;95.90;;;;;;4953882;28;20497;-61
2023/12/07 08:07:13;;;;;;;1.90;1.80;;;-1.20;95.40;;;;;;4954040;28;20196;-61
2023/12/07 08:09:39;;;;;;;0.70;0.70;;;-1.00;95.20;;;;;;4949870;28;20297;-61
2023/12/07 08:12:07;;;;;;;3.38;3.13;;;-0.90;95.40;;;;;;4944113;29;20197;-60
2023/12/07 08:14:32;;;;;;;2.05;1.95;;;-0.60;95.70;;;;;;4945274;29;20634;-60
2023/12/07 08:16:58;;;;;;;2.10;1.90;;;-0.30;96.40;;;;;;4951409;29;20217;-60
2023/12/07 08:19:23;;;;;;;2.40;2.30;;;0.00;96.50;;;;;;4944504;29;20223;-61
2023/12/07 08:21:51;;;;;;;1.20;1.10;;;0.20;95.40;;;;;;4950686;29;20712;-61
2023/12/07 08:24:16;;;;;;;2.53;2.33;;;0.60;94.70;;;;;;4942570;29;20231;-61
2023/12/07 08:26:42;;;;;;;4.70;4.30;;;1.00;94.40;;;;;;4949268;29;20212;-61
2023/12/07 08:29:08;;;;;;;1.57;1.57;;;1.40;94.80;;;;;;4948197;29;20563;-61
2023/12/07 08:31:35;;;;;;;1.17;1.07;;;1.60;95.60;;;;;;4947939;29;20895;-61
2023/12/07 08:34:01;;;;;;;2.15;2.03;;;2.20;95.90;;;;;;4945776;29;20205;-61
2023/12/07 08:36:27;;;;;;;1.10;1.00;;;2.60;93.90;;;;;;4947334;29;20679;-61
2023/12/07 08:38:54;;;;;;;1.77;1.67;;;3.30;94.80;;;;;;4943576;29;20240;-61
2023/12/07 08:41:19;;;;;;;2.88;2.67;;;4.30;94.80;;;;;;4945694;29;20263;-61
2023/12/07 08:43:45;;;;;;;1.17;1.10;;;5.40;92.30;;;;;;4948706;29;20668;-62
2023/12/07 08:46:12;;;;;;;2.20;2.10;;;6.00;91.30;;;;;;4944956;28;20335;-60
2023/12/07 08:48:41;;;;;;;1.92;1.30;;;6.40;88.80;;;;;;4947177;29;20182;-60
2023/12/07 08:51:08;;;;;;;2.75;2.05;;;6.50;87.20;;;;;;4950824;29;20663;-62
2023/12/07 08:53:35;;;;;;;1.30;1.20;;;6.40;83.40;;;;;;4944378;29;20216;-62
2023/12/07 08:56:01;;;;;;;2.70;2.50;;;6.10;81.30;;;;;;4949878;29;20189;-61
2023/12/07 08:58:27;;;;;;;1.33;1.33;;;6.00;82.70;;;;;;4943400;29;20186;-62
2023/12/07 09:00:52;;;;;;;3.60;1.83;;;6.20;83.00;;;;;;4948399;29;20232;-62
2023/12/07 09:03:18;;;;;;;2.10;1.90;;;6.50;82.30;;;;;;4949226;29;20678;-61
2023/12/07 09:05:44;;;;;;;1.10;0.97;;;6.50;79.90;;;;;;4948456;29;20181;-61
2023/12/07 09:08:10;;;;;;;1.43;1.33;;;6.40;80.60;;;;;;4952436;28;20537;-61
2023/12/07 09:10:35;;;;;;;1.60;1.50;;;6.20;81.10;;;;;;4952763;28;20213;-61
2023/12/07 09:13:01;;;;;;;1.80;1.70;;;5.90;82.80;;;;;;4952264;28;20500;-61
2023/12/07 09:15:27;;;;;;;0.80;0.80;;;5.80;82.20;;;;;;4953146;28;20229;-61
2023/12/07 09:17:52;;;;;;;1.87;1.77;;;5.70;83.40;;;;;;5002237;23;20247;-61
2023/12/07 09:20:18;;;;;;;1.63;1.53;;;5.70;83.90;;;;;;4985052;28;20207;-61
2023/12/07 09:22:45;;;;;;;0.83;0.70;;;5.70;83.40;;;;;;4972648;28;20233;-61
2023/12/07 09:25:12;;;;;;;1.73;0.80;;;5.30;84.00;;;;;;4972352;28;20201;-60
2023/12/07 09:27:39;;;;;;;1.15;0.70;;;5.00;85.00;;;;;;4970006;28;20220;-61
2023/12/07 09:30:10;;;;;;;0.80;0.80;;;4.70;85.80;;;;;;4952620;28;20194;-61
2023/12/07 09:32:45;;;;;;;1.75;0.70;;;4.90;87.60;;;;;;4952929;28;20694;-60
2023/12/07 09:35:15;;;;;;;0.50;0.50;;;5.10;87.00;;;;;;4957897;28;20653;-60
2023/12/07 09:37:41;;;;;;;2.97;1.40;;;5.20;87.50;;;;;;4935628;29;20219;-60
2023/12/07 09:40:07;;;;;;;0.97;0.87;;;5.20;86.60;;;;;;4954157;28;20629;-61
2023/12/07 09:42:33;;;;;;;1.83;1.53;;;4.80;86.90;;;;;;4956208;28;20181;-60
2023/12/07 09:44:59;;;;;;;1.05;1.05;;;4.40;88.50;;;;;;4966401;28;20439;-60
2023/12/07 09:47:27;;;;;;;0.83;0.83;;;4.30;89.50;;;;;;4986884;28;20204;-60
2023/12/07 09:49:53;;;;;;;1.13;1.00;;;4.20;90.00;;;;;;4994762;28;20503;-60
2023/12/07 09:52:20;;;;;;;1.30;0.97;;;3.90;90.50;;;;;;4994813;28;20258;-61
2023/12/07 09:54:47;;;;;;;0.75;0.75;;;3.60;91.00;;;;;;4984389;28;21013;-60
2023/12/07 09:57:13;;;;;;;1.05;1.02;;;3.50;91.50;;;;;;4983084;28;20200;-60
2023/12/07 09:59:40;;;;;;;1.38;1.15;;;3.40;91.90;;;;;;4993989;28;20176;-60
2023/12/07 10:02:07;;;;;;;1.20;1.10;;;3.40;91.80;;;;;;4994570;28;20589;-60
2023/12/07 10:04:33;;;;;;;1.05;1.05;;;3.20;92.20;;;;;;4994372;28;20176;-60
2023/12/07 10:06:58;;;;;;;0.87;0.83;;;3.20;92.70;;;;;;4994729;28;20196;-60
2023/12/07 10:09:25;;;;;;;1.20;1.10;;;3.30;93.10;;;;;;4994731;28;20658;-61
2023/12/07 10:12:03;;;;;;;3.20;3.05;;;3.70;93.00;;;;;;4994361;28;20215;-60
2023/12/07 10:14:29;;;;;;;0.80;0.80;;;4.10;92.30;;;;;;4994623;28;20270;-61
2023/12/07 10:16:56;;;;;;;1.05;0.75;;;4.10;92.10;;;;;;4994319;28;20205;-60
2023/12/07 10:19:22;;;;;;;0.95;0.95;;;4.10;92.20;;;;;;4994817;28;20662;-60
2023/12/07 10:21:52;;;;;;;0.63;0.63;;;4.00;92.20;;;;;;4994123;28;20251;-60
2023/12/07 10:24:19;;;;;;;2.70;1.80;;;4.10;91.90;;;;;;4994389;28;20188;-61
2023/12/07 10:26:45;;;;;;;1.45;1.35;;;4.40;92.30;;;;;;4994732;28;20184;-60
2023/12/07 10:29:11;;;;;;;1.02;1.02;;;5.40;91.70;;;;;;4994550;28;20184;-61
2023/12/07 10:31:38;;;;;;;1.33;1.23;;;6.60;91.40;;;;;;4994022;28;20177;-61
2023/12/07 10:34:04;;;;;;;2.90;1.35;;;7.90;86.70;;;;;;4976739;28;20463;-61
2023/12/07 10:36:30;;;;;;;1.33;1.20;;;8.80;82.80;;;;;;4993902;28;20197;-61
2023/12/07 10:38:56;;;;;;;1.53;0.90;;;9.60;81.10;;;;;;4994125;28;20407;-61
2023/12/07 10:41:24;;;;;;;1.90;1.20;;;10.00;76.40;;;;;;4993900;28;20678;-61
2023/12/07 10:43:53;;;;;;;0.90;0.90;;;10.40;75.30;;;;;;4994154;28;20415;-61
2023/12/07 10:46:21;;;;;;;0.90;0.90;;;10.70;74.10;;;;;;4994234;28;20454;-61
2023/12/07 10:48:48;;;;;;;1.75;0.93;;;10.30;71.20;;;;;;4993956;28;20920;-61
2023/12/07 10:51:22;;;;;;;0.80;0.80;;;10.00;72.50;;;;;;4992784;28;20572;-61
2023/12/07 10:53:50;;;;;;;0.55;0.55;;;9.50;73.20;;;;;;4993948;28;20208;-60
2023/12/07 10:56:39;;;;;;;1.60;1.50;;;9.00;74.40;;;;;;4993812;28;20267;-60
2023/12/07 10:59:06;;;;;;;0.75;0.73;;;8.60;76.10;;;;;;4993972;28;20391;-61
2023/12/07 11:01:33;;;;;;;1.30;1.08;;;8.20;77.60;;;;;;4993526;28;20196;-61
2023/12/07 11:04:00;;;;;;;1.55;1.35;;;8.20;77.90;;;;;;4993525;28;20176;-61
2023/12/07 11:06:26;;;;;;;0.80;0.80;;;8.20;80.10;;;;;;4993678;28;20589;-61
2023/12/07 11:09:00;;;;;;;0.80;0.80;;;8.10;78.60;;;;;;4993683;28;20187;-61
2023/12/07 11:11:40;;;;;;;1.05;1.05;;;7.70;79.40;;;;;;4993539;28;20188;-61
2023/12/07 11:14:11;;;;;;;7.13;1.58;;;7.50;81.30;;;;;;4993551;28;20203;-61
2023/12/07 11:16:40;;;;;;;1.17;0.88;;;7.70;82.70;;;;;;4993481;28;20761;-61
2023/12/07 11:19:39;;;;;;;0.60;0.60;;;7.90;83.40;;;;;;4993715;28;20599;-61
2023/12/07 11:22:11;;;;;;;3.35;1.20;;;8.10;83.40;;;;;;4993110;28;20172;-61
2023/12/07 11:24:36;;;;;;;0.93;0.65;;;7.80;79.60;;;;;;4993319;28;20187;-61
2023/12/07 11:27:02;;;;;;;1.93;1.23;;;7.60;80.60;;;;;;4993307;28;20192;-61
2023/12/07 11:29:29;;;;;;;1.75;1.13;;;7.30;80.30;;;;;;4993298;28;20418;-61
2023/12/07 11:32:06;;;;;;;0.77;0.77;;;7.10;82.00;;;;;;4992825;28;20207;-61
2023/12/07 11:34:42;;;;;;;1.02;0.70;;;6.80;83.00;;;;;;4993257;28;20238;-61
2023/12/07 11:37:09;;;;;;;0.50;0.50;;;6.40;83.80;;;;;;4993003;28;20191;-61
2023/12/07 11:39:45;;;;;;;0.80;0.77;;;6.20;85.70;;;;;;4993094;28;20631;-61
2023/12/07 11:42:20;;;;;;;1.50;1.30;;;6.00;85.70;;;;;;4992824;28;20180;-61
2023/12/07 11:44:50;;;;;;;0.60;0.50;;;5.60;86.40;;;;;;4993196;28;20246;-60
2023/12/07 11:47:17;;;;;;;0.50;0.50;;;5.30;87.50;;;;;;4993194;28;20201;-61
2023/12/07 11:49:43;;;;;;;1.00;1.00;;;5.10;88.10;;;;;;4992880;28;20168;-61
2023/12/07 11:52:16;;;;;;;1.67;1.58;;;4.90;89.50;;;;;;4992604;28;20749;-60
2023/12/07 11:54:44;;;;;;;0.70;0.70;;;4.60;90.00;;;;;;4992755;28;20204;-61
2023/12/07 11:57:10;;;;;;;1.35;1.25;;;4.50;90.50;;;;;;4992649;28;20200;-61
2023/12/07 11:59:36;;;;;;;1.80;1.17;;;4.40;90.80;;;;;;4992797;28;20173;-61
2023/12/07 12:02:05;;;;;;;0.47;0.47;;;4.40;91.20;;;;;;4992166;28;20189;-60
2023/12/07 12:04:30;;;;;;;0.85;0.85;;;4.20;91.50;;;;;;4992781;28;20539;-60
2023/12/07 12:06:56;;;;;;;0.73;0.73;;;4.10;91.50;;;;;;4992378;28;20207;-60
2023/12/07 12:09:24;;;;;;;2.03;1.93;;;4.20;92.00;;;;;;4992608;28;20199;-60
2023/12/07 12:11:50;;;;;;;1.23;1.13;;;4.10;92.00;;;;;;4991776;28;20734;-60
2023/12/07 12:14:16;;;;;;;0.70;0.63;;;4.00;92.10;;;;;;4992245;28;20226;-60
2023/12/07 12:16:46;;;;;;;1.50;1.02;;;4.10;92.20;;;;;;4992204;28;20665;-61
2023/12/07 12:19:15;;;;;;;2.63;1.30;;;4.10;92.40;;;;;;4992458;28;20178;-61
2023/12/07 12:21:43;;;;;;;1.25;1.25;;;4.00;92.60;;;;;;4992018;28;20792;-60
2023/12/07 12:24:09;;;;;;;2.78;1.35;;;4.00;92.80;;;;;;4992306;28;20263;-60
2023/12/07 12:26:38;;;;;;;0.50;0.50;;;4.00;92.80;;;;;;4992307;28;20549;-60
2023/12/07 12:29:05;;;;;;;1.40;1.30;;;3.90;92.70;;;;;;4992221;28;20720;-60
2023/12/07 12:31:31;;;;;;;0.90;0.90;;;3.80;92.90;;;;;;4991512;28;20188;-60
2023/12/07 12:33:57;;;;;;;0.80;0.80;;;3.70;93.00;;;;;;4992304;28;20574;-60
2023/12/07 12:36:26;;;;;;;1.03;0.93;;;3.40;93.20;;;;;;4992118;28;20184;-60
2023/12/07 12:38:52;;;;;;;0.68;0.60;;;3.20;93.30;;;;;;4992146;28;20465;-60
2023/12/07 12:41:24;;;;;;;1.35;1.25;;;3.00;94.00;;;;;;4991870;28;20184;-60
2023/12/07 12:43:51;;;;;;;1.50;1.50;;;2.80;94.50;;;;;;4992367;28;20176;-59
2023/12/07 12:46:18;;;;;;;0.65;0.65;;;2.70;95.20;;;;;;4992067;28;20259;-60
2023/12/07 12:49:00;;;;;;;0.60;0.60;;;2.70;95.90;;;;;;4992112;28;20199;-60
2023/12/07 12:51:29;;;;;;;0.40;0.40;;;2.80;96.10;;;;;;4991834;28;20209;-60